Time;durP1;ratioP1;P1;durP2;ratioP2;P2;SDS_P1;SDS_P2;PMS_P1;PMS_P2;Temp;Humidity;BMP_temperature;BMP_pressure;BME280_temperature;BME280_humidity;BME280_pressure;Samples;Min_cycle;Max_cycle;Signal;HPM_P1;HPM_P2
2021/05/03 00:00:13;;;;;;;4.30;3.90;;;5.10;99.90;;;;;;4937517;29;20552;-77
2021/05/03 00:02:40;;;;;;;4.83;4.20;;;5.10;99.90;;;;;;4920570;29;20484;-77
2021/05/03 00:05:18;;;;;;;5.80;4.17;;;5.10;99.90;;;;;;4919583;29;20442;-77
2021/05/03 00:07:45;;;;;;;6.70;4.20;;;5.10;99.90;;;;;;4925834;29;20551;-77
2021/05/03 00:10:13;;;;;;;5.37;3.90;;;5.10;99.90;;;;;;4924130;29;20962;-77
2021/05/03 00:12:42;;;;;;;5.57;4.30;;;5.10;99.90;;;;;;4937105;29;20573;-77
2021/05/03 00:15:11;;;;;;;3.50;3.20;;;5.00;99.90;;;;;;4937479;29;20457;-77
2021/05/03 00:17:39;;;;;;;3.80;3.50;;;5.00;99.90;;;;;;4938474;29;20497;-77
2021/05/03 00:20:08;;;;;;;7.67;4.07;;;5.10;99.90;;;;;;4937335;29;20453;-77
2021/05/03 00:22:35;;;;;;;4.57;4.17;;;5.00;99.90;;;;;;4927196;29;20488;-77
2021/05/03 00:25:04;;;;;;;4.20;3.80;;;5.00;99.90;;;;;;4932464;29;20461;-77
2021/05/03 00:27:32;;;;;;;3.60;3.30;;;5.00;99.90;;;;;;4918071;29;20555;-77
2021/05/03 00:29:59;;;;;;;4.40;4.00;;;5.00;99.90;;;;;;4918177;29;20832;-77
2021/05/03 00:32:26;;;;;;;4.93;4.20;;;5.00;99.90;;;;;;4919154;29;20472;-77
2021/05/03 00:34:53;;;;;;;5.03;3.93;;;5.00;99.90;;;;;;4919401;29;20476;-77
2021/05/03 00:37:20;;;;;;;4.70;4.20;;;5.00;99.90;;;;;;4923678;29;20556;-77
2021/05/03 00:39:47;;;;;;;5.27;3.83;;;5.10;99.90;;;;;;4936802;29;20530;-77
2021/05/03 00:42:14;;;;;;;4.60;4.20;;;5.00;99.90;;;;;;4936776;29;20504;-77
2021/05/03 00:44:42;;;;;;;7.67;3.90;;;5.00;99.90;;;;;;4938092;29;20438;-77
2021/05/03 00:47:10;;;;;;;5.73;4.70;;;5.10;99.90;;;;;;4929608;29;20456;-78
2021/05/03 00:49:39;;;;;;;4.80;4.30;;;5.10;99.90;;;;;;4917741;29;20442;-78
2021/05/03 00:52:06;;;;;;;4.93;4.43;;;5.10;99.90;;;;;;4917901;29;20517;-78
2021/05/03 00:54:34;;;;;;;5.27;4.30;;;5.00;99.90;;;;;;4917649;29;20438;-77
2021/05/03 00:57:01;;;;;;;6.53;4.20;;;5.00;99.90;;;;;;4917460;29;20547;-77
2021/05/03 00:59:28;;;;;;;4.80;4.27;;;5.00;99.90;;;;;;4918779;29;20426;-77
2021/05/03 01:01:56;;;;;;;4.93;4.27;;;5.00;99.90;;;;;;4918283;29;20540;-77
2021/05/03 01:04:23;;;;;;;6.63;3.97;;;5.10;99.90;;;;;;4918625;29;20477;-77
2021/05/03 01:06:50;;;;;;;4.93;4.43;;;5.00;99.90;;;;;;4917328;29;20449;-77
2021/05/03 01:09:18;;;;;;;5.40;4.57;;;5.10;99.90;;;;;;4919728;29;20497;-77
2021/05/03 01:11:45;;;;;;;4.23;3.83;;;5.10;99.90;;;;;;4917299;28;20895;-77
2021/05/03 01:14:13;;;;;;;6.10;3.80;;;5.10;99.90;;;;;;4917866;29;20470;-77
2021/05/03 01:16:40;;;;;;;5.10;3.90;;;5.10;99.90;;;;;;4918638;29;20840;-77
2021/05/03 01:19:08;;;;;;;5.90;4.03;;;5.10;99.90;;;;;;4917140;29;20456;-77
2021/05/03 01:21:36;;;;;;;4.37;3.97;;;5.10;99.90;;;;;;4926642;29;20511;-77
2021/05/03 01:24:04;;;;;;;4.73;4.10;;;5.10;99.90;;;;;;4937195;29;20579;-77
2021/05/03 01:26:31;;;;;;;6.50;3.90;;;5.10;99.90;;;;;;4937009;29;20923;-78
2021/05/03 01:28:58;;;;;;;4.40;4.00;;;5.10;99.90;;;;;;4935773;29;20757;-77
2021/05/03 01:31:25;;;;;;;6.23;4.30;;;5.10;99.90;;;;;;4936864;29;20546;-77
2021/05/03 01:33:52;;;;;;;4.53;4.13;;;5.20;99.90;;;;;;4936013;29;21022;-77
2021/05/03 01:36:19;;;;;;;5.57;4.57;;;5.10;99.90;;;;;;4930053;29;20603;-77
2021/05/03 01:38:47;;;;;;;6.23;4.63;;;5.10;99.90;;;;;;4919471;29;20202;-77
2021/05/03 01:41:14;;;;;;;5.17;4.67;;;5.10;99.90;;;;;;4918168;29;20529;-77
2021/05/03 01:43:42;;;;;;;5.63;5.13;;;5.10;99.90;;;;;;4917779;29;20485;-77
2021/05/03 01:46:09;;;;;;;5.80;5.20;;;5.20;99.90;;;;;;4918474;29;20447;-77
2021/05/03 01:48:36;;;;;;;6.60;5.10;;;5.10;99.90;;;;;;4919351;29;20529;-77
2021/05/03 01:51:06;;;;;;;6.70;5.37;;;5.10;99.90;;;;;;4919215;29;21081;-77
2021/05/03 01:53:34;;;;;;;5.33;4.83;;;5.10;99.90;;;;;;4932952;29;20477;-77
2021/05/03 01:56:02;;;;;;;5.43;4.93;;;5.10;99.90;;;;;;4917643;29;20504;-77
2021/05/03 01:58:29;;;;;;;5.40;4.90;;;5.10;99.90;;;;;;4917790;29;20561;-77
2021/05/03 02:00:57;;;;;;;5.30;4.70;;;5.10;99.90;;;;;;4917883;29;20430;-77
2021/05/03 02:03:27;;;;;;;5.80;5.20;;;5.10;99.90;;;;;;4917334;29;20980;-77
2021/05/03 02:05:55;;;;;;;6.00;5.30;;;5.10;99.90;;;;;;4917799;29;20482;-77
2021/05/03 02:08:22;;;;;;;6.03;5.43;;;5.10;99.90;;;;;;4916133;29;20503;-77
2021/05/03 02:10:51;;;;;;;6.40;5.13;;;5.10;99.90;;;;;;4917673;29;20438;-77
2021/05/03 02:13:20;;;;;;;5.97;5.47;;;5.10;99.90;;;;;;4918516;28;20987;-77
2021/05/03 02:15:48;;;;;;;7.10;6.30;;;5.10;99.90;;;;;;4934354;29;20507;-77
2021/05/03 02:18:16;;;;;;;6.00;5.40;;;5.00;99.90;;;;;;4936515;29;20523;-77
2021/05/03 02:20:44;;;;;;;5.57;5.07;;;5.00;99.90;;;;;;4932732;29;20488;-77
2021/05/03 02:23:12;;;;;;;6.90;6.20;;;5.00;99.90;;;;;;4932642;29;21007;-77
2021/05/03 02:25:39;;;;;;;6.70;6.00;;;5.00;99.90;;;;;;4936422;29;20531;-77
2021/05/03 02:28:09;;;;;;;7.67;5.77;;;5.00;99.90;;;;;;4934817;29;20976;-77
2021/05/03 02:30:37;;;;;;;7.20;5.87;;;5.00;99.90;;;;;;4934830;29;20541;-77
2021/05/03 02:33:05;;;;;;;7.43;5.77;;;5.00;99.90;;;;;;4935915;29;20461;-77
2021/05/03 02:35:33;;;;;;;6.17;5.57;;;5.00;99.90;;;;;;4919918;29;20454;-77
2021/05/03 02:38:03;;;;;;;7.20;5.50;;;4.90;99.90;;;;;;4927967;29;20474;-77
2021/05/03 02:40:31;;;;;;;6.67;6.00;;;5.00;99.90;;;;;;4915665;29;20448;-77
2021/05/03 02:43:01;;;;;;;6.70;5.30;;;4.90;99.90;;;;;;4916899;29;20548;-77
2021/05/03 02:45:29;;;;;;;5.73;5.13;;;4.90;99.90;;;;;;4915675;29;20540;-77
2021/05/03 02:47:57;;;;;;;6.60;5.90;;;5.00;99.90;;;;;;4915797;29;20540;-77
2021/05/03 02:50:25;;;;;;;7.40;5.83;;;4.90;99.90;;;;;;4916960;29;20446;-77
2021/05/03 02:52:54;;;;;;;7.13;6.07;;;4.90;99.90;;;;;;4931400;29;20479;-77
2021/05/03 02:55:22;;;;;;;6.20;5.47;;;4.90;99.90;;;;;;4936627;29;20964;-77
2021/05/03 02:57:50;;;;;;;6.20;5.53;;;4.90;99.90;;;;;;4935750;29;20859;-77
2021/05/03 03:00:22;;;;;;;6.20;5.03;;;4.80;99.90;;;;;;4920799;29;20536;-77
2021/05/03 03:02:49;;;;;;;7.20;5.60;;;4.80;99.90;;;;;;4915344;29;20918;-76
2021/05/03 03:05:17;;;;;;;5.30;4.80;;;4.70;99.90;;;;;;4916675;29;20437;-76
2021/05/03 03:07:44;;;;;;;7.40;5.83;;;4.70;99.90;;;;;;4915477;29;20506;-76
2021/05/03 03:10:12;;;;;;;8.90;6.10;;;4.70;99.90;;;;;;4916627;29;20954;-76
2021/05/03 03:12:39;;;;;;;5.40;4.80;;;4.70;99.90;;;;;;4915280;29;20496;-77
2021/05/03 03:15:09;;;;;;;5.97;5.37;;;4.70;99.90;;;;;;4917242;29;20437;-77
2021/05/03 03:17:37;;;;;;;6.63;5.73;;;4.60;99.90;;;;;;4916577;29;20468;-77
2021/05/03 03:20:05;;;;;;;7.07;5.80;;;4.60;99.90;;;;;;4915307;29;20453;-77
2021/05/03 03:22:36;;;;;;;7.03;6.33;;;4.60;99.90;;;;;;4916542;29;20478;-77
2021/05/03 03:25:04;;;;;;;9.37;7.63;;;4.50;99.90;;;;;;4916728;29;20556;-77
2021/05/03 03:27:32;;;;;;;13.50;6.63;;;4.50;99.90;;;;;;4920654;29;20797;-77
2021/05/03 03:29:59;;;;;;;6.40;5.80;;;4.50;99.90;;;;;;4919017;29;20540;-77
2021/05/03 03:32:26;;;;;;;8.03;7.13;;;4.50;99.90;;;;;;4918912;29;20548;-77
2021/05/03 03:34:53;;;;;;;6.20;5.60;;;4.40;99.90;;;;;;4918882;29;20552;-77
2021/05/03 03:37:20;;;;;;;6.72;5.90;;;4.40;99.90;;;;;;4918888;29;20870;-77
2021/05/03 03:39:48;;;;;;;7.63;6.57;;;4.40;99.90;;;;;;4920132;29;20200;-77
2021/05/03 03:42:15;;;;;;;6.50;5.80;;;4.40;99.90;;;;;;4920238;29;20520;-77
2021/05/03 03:44:43;;;;;;;7.57;5.93;;;4.40;99.90;;;;;;4920345;29;20480;-77
2021/05/03 03:47:10;;;;;;;7.32;6.30;;;4.30;99.90;;;;;;4918830;29;20511;-77
2021/05/03 03:49:38;;;;;;;7.93;7.13;;;4.30;99.90;;;;;;4919913;29;20614;-77
2021/05/03 03:52:05;;;;;;;7.43;6.60;;;4.30;99.90;;;;;;4918426;29;20461;-77
2021/05/03 03:54:32;;;;;;;8.20;7.07;;;4.30;99.90;;;;;;4918478;29;20535;-77
2021/05/03 03:57:01;;;;;;;8.53;7.27;;;4.20;99.90;;;;;;4918773;29;20453;-77
2021/05/03 03:59:30;;;;;;;7.83;7.03;;;4.20;99.90;;;;;;4918755;29;21013;-77
2021/05/03 04:01:57;;;;;;;7.10;6.30;;;4.20;99.90;;;;;;4919214;29;20478;-77
2021/05/03 04:04:28;;;;;;;12.87;6.90;;;4.20;99.90;;;;;;4919540;29;20482;-77
2021/05/03 04:06:59;;;;;;;8.47;6.20;;;4.20;99.90;;;;;;4919978;29;20430;-76
2021/05/03 04:09:34;;;;;;;9.43;6.70;;;4.10;99.90;;;;;;4918306;29;20570;-76
2021/05/03 04:26:11;;;;;;;7.70;6.03;;;4.10;99.90;;;;;;4938835;29;20432;-77
2021/05/03 04:28:45;;;;;;;6.90;6.20;;;4.10;99.90;;;;;;4937294;29;20451;-77
2021/05/03 04:31:12;;;;;;;7.40;6.57;;;4.00;99.90;;;;;;4937178;29;20452;-77
2021/05/03 04:33:39;;;;;;;6.47;5.87;;;4.10;99.90;;;;;;4918156;29;20568;-77
2021/05/03 04:36:07;;;;;;;7.47;5.57;;;4.10;99.90;;;;;;4924661;29;20508;-77
2021/05/03 04:38:35;;;;;;;6.33;5.70;;;4.10;99.90;;;;;;4925706;29;20543;-77
2021/05/03 04:41:02;;;;;;;6.20;5.60;;;4.10;99.90;;;;;;4919617;29;20429;-77
2021/05/03 04:43:30;;;;;;;7.33;6.03;;;4.10;99.90;;;;;;4936942;29;20563;-78
2021/05/03 04:45:58;;;;;;;7.10;6.30;;;4.20;99.90;;;;;;4937052;29;20436;-77
2021/05/03 04:48:27;;;;;;;8.63;5.90;;;4.20;99.90;;;;;;4938518;29;20530;-77
2021/05/03 04:50:54;;;;;;;7.03;6.23;;;4.10;99.90;;;;;;4936912;29;20472;-77
2021/05/03 04:53:21;;;;;;;6.83;5.77;;;4.20;99.90;;;;;;4936826;29;20508;-78
2021/05/03 04:55:49;;;;;;;6.70;6.00;;;4.20;99.90;;;;;;4936854;29;20433;-78
2021/05/03 04:58:16;;;;;;;8.23;6.07;;;4.20;99.90;;;;;;4936776;29;20833;-78
2021/05/03 05:00:43;;;;;;;7.40;6.70;;;4.30;99.90;;;;;;4936799;29;20535;-78
2021/05/03 05:03:11;;;;;;;7.70;6.37;;;4.30;99.90;;;;;;4920792;29;20914;-79
2021/05/03 05:05:39;;;;;;;7.93;6.03;;;4.40;99.90;;;;;;4922731;29;20504;-78
2021/05/03 05:08:06;;;;;;;8.50;5.93;;;4.40;99.90;;;;;;4937844;29;20432;-78
2021/05/03 05:10:33;;;;;;;6.93;6.23;;;4.50;99.90;;;;;;4925349;29;20447;-78
2021/05/03 05:13:00;;;;;;;8.10;6.60;;;4.60;99.90;;;;;;4917274;29;20485;-78
2021/05/03 05:15:28;;;;;;;7.50;6.80;;;4.60;99.90;;;;;;4920911;29;20449;-78
2021/05/03 05:17:58;;;;;;;6.60;6.00;;;4.70;99.90;;;;;;4917531;29;20453;-78
2021/05/03 05:20:27;;;;;;;7.63;6.63;;;4.70;99.90;;;;;;4918579;29;20468;-78
2021/05/03 05:22:54;;;;;;;8.03;6.60;;;4.80;99.90;;;;;;4917297;29;20556;-78
2021/05/03 05:25:21;;;;;;;7.10;6.40;;;4.80;99.90;;;;;;4917216;29;20518;-78
2021/05/03 05:27:48;;;;;;;7.07;6.47;;;4.80;99.90;;;;;;4918652;29;20432;-78
2021/05/03 05:30:16;;;;;;;8.07;7.27;;;4.90;99.90;;;;;;4918761;29;20461;-78
2021/05/03 05:32:43;;;;;;;9.17;6.57;;;5.00;99.90;;;;;;4917228;29;20562;-78
2021/05/03 05:35:11;;;;;;;7.00;6.30;;;5.00;99.90;;;;;;4917134;29;20545;-78
2021/05/03 05:37:39;;;;;;;7.07;5.97;;;5.10;99.90;;;;;;4917287;29;20884;-78
2021/05/03 05:40:09;;;;;;;6.50;5.87;;;5.10;99.90;;;;;;4918232;29;21060;-78
2021/05/03 05:42:37;;;;;;;6.50;5.90;;;5.20;99.90;;;;;;4918219;29;20472;-78
2021/05/03 05:45:06;;;;;;;7.17;6.57;;;5.20;99.90;;;;;;4918430;29;20488;-78
2021/05/03 05:47:34;;;;;;;7.00;6.30;;;5.30;99.90;;;;;;4918437;29;20426;-79
2021/05/03 05:50:01;;;;;;;6.70;6.07;;;5.30;99.90;;;;;;4918701;29;20446;-79
2021/05/03 05:52:31;;;;;;;6.97;5.90;;;5.30;99.90;;;;;;4919208;29;20458;-79
2021/05/03 05:55:00;;;;;;;7.10;6.47;;;5.40;99.90;;;;;;4916878;29;20553;-78
2021/05/03 05:57:27;;;;;;;6.50;5.87;;;5.40;99.90;;;;;;4918157;29;20461;-78
2021/05/03 05:59:54;;;;;;;6.73;6.13;;;5.40;99.90;;;;;;4917032;29;20449;-78
2021/05/03 06:02:21;;;;;;;7.80;7.00;;;5.50;99.90;;;;;;4916121;29;20465;-79
2021/05/03 06:04:48;;;;;;;6.57;5.90;;;5.60;99.90;;;;;;4917258;29;20222;-79
2021/05/03 06:07:15;;;;;;;7.70;6.93;;;5.60;99.90;;;;;;4917952;29;20444;-79
2021/05/03 06:09:56;;;;;;;6.57;5.93;;;5.70;99.90;;;;;;4917233;29;20460;-79
2021/05/03 06:12:24;;;;;;;8.03;7.23;;;5.70;99.90;;;;;;4918214;29;20508;-78
2021/05/03 06:14:53;;;;;;;8.23;7.27;;;5.70;99.90;;;;;;4917518;29;20475;-79
2021/05/03 06:17:20;;;;;;;8.57;7.73;;;5.70;99.90;;;;;;4917532;29;20485;-79
2021/05/03 06:19:47;;;;;;;7.87;7.07;;;5.80;99.90;;;;;;4918562;29;20446;-79
2021/05/03 06:22:15;;;;;;;7.70;7.00;;;5.80;99.90;;;;;;4918398;29;20484;-79
2021/05/03 06:24:45;;;;;;;8.43;7.63;;;5.80;99.90;;;;;;4916768;29;20503;-79
2021/05/03 06:27:12;;;;;;;8.57;7.77;;;5.80;99.90;;;;;;4917950;29;20528;-79
2021/05/03 06:29:40;;;;;;;8.57;7.87;;;5.80;99.90;;;;;;4916717;29;20541;-79
2021/05/03 06:32:07;;;;;;;8.13;7.40;;;5.80;99.90;;;;;;4917653;29;20517;-79
2021/05/03 06:34:37;;;;;;;8.00;7.30;;;5.80;99.90;;;;;;4916494;29;20462;-79
2021/05/03 06:37:04;;;;;;;8.47;7.77;;;5.80;99.90;;;;;;4916454;29;20548;-79
2021/05/03 06:39:31;;;;;;;7.77;6.93;;;5.80;99.90;;;;;;4916769;29;20493;-79
2021/05/03 06:41:58;;;;;;;7.63;6.93;;;5.90;99.90;;;;;;4916262;29;20442;-79
2021/05/03 06:44:26;;;;;;;8.13;7.33;;;5.90;99.90;;;;;;4917341;29;20525;-79
2021/05/03 06:46:54;;;;;;;7.10;6.50;;;5.80;99.90;;;;;;4916025;29;20451;-78
2021/05/03 06:49:21;;;;;;;8.00;7.30;;;5.90;99.90;;;;;;4916129;29;20454;-78
2021/05/03 06:51:50;;;;;;;7.83;6.10;;;5.90;99.90;;;;;;4916177;29;20505;-78
2021/05/03 06:54:17;;;;;;;6.90;6.40;;;5.80;99.90;;;;;;4917250;29;20444;-78
2021/05/03 06:56:45;;;;;;;6.87;6.27;;;5.90;99.90;;;;;;4916159;29;20450;-78
2021/05/03 06:59:12;;;;;;;6.87;6.27;;;5.80;99.90;;;;;;4915892;29;21044;-78
2021/05/03 07:01:39;;;;;;;7.20;6.50;;;5.80;99.90;;;;;;4915472;29;20454;-78
2021/05/03 07:04:07;;;;;;;7.17;6.30;;;5.90;99.90;;;;;;4915855;29;20514;-78
2021/05/03 07:06:34;;;;;;;6.63;6.13;;;5.80;99.90;;;;;;4915847;29;20502;-78
2021/05/03 07:09:02;;;;;;;7.60;6.90;;;5.90;99.90;;;;;;4915886;29;20513;-78
2021/05/03 07:11:31;;;;;;;7.67;7.07;;;5.90;99.90;;;;;;4915702;29;20900;-78
2021/05/03 07:13:58;;;;;;;8.00;7.20;;;5.90;99.90;;;;;;4915656;29;20929;-78
2021/05/03 07:16:25;;;;;;;7.50;6.67;;;5.90;99.90;;;;;;4916018;29;20478;-78
2021/05/03 07:18:55;;;;;;;10.33;9.07;;;5.90;99.90;;;;;;4916823;29;20448;-78
2021/05/03 07:21:23;;;;;;;9.03;8.17;;;5.90;99.90;;;;;;4915864;29;20453;-78
2021/05/03 07:23:50;;;;;;;9.00;8.20;;;5.90;99.90;;;;;;4917053;29;20528;-78
2021/05/03 07:26:18;;;;;;;9.60;8.10;;;5.90;99.90;;;;;;4915643;29;20505;-78
2021/05/03 07:28:45;;;;;;;9.30;8.40;;;5.90;99.90;;;;;;4915713;29;20640;-78
2021/05/03 07:31:13;;;;;;;9.17;8.37;;;5.90;99.90;;;;;;4915856;29;20450;-78
2021/05/03 07:33:40;;;;;;;9.90;9.00;;;5.90;99.90;;;;;;4915496;29;20556;-78
2021/05/03 07:36:07;;;;;;;9.70;8.70;;;5.90;99.90;;;;;;4916692;29;20451;-78
2021/05/03 07:38:35;;;;;;;9.20;8.30;;;5.90;99.90;;;;;;4915464;29;20501;-78
2021/05/03 07:41:02;;;;;;;8.37;7.67;;;5.90;99.90;;;;;;4915470;29;20488;-78
2021/05/03 07:43:29;;;;;;;12.47;8.00;;;5.90;99.90;;;;;;4915378;29;20905;-78
2021/05/03 07:46:01;;;;;;;8.90;8.10;;;6.00;99.90;;;;;;4915500;29;20438;-78
2021/05/03 07:48:29;;;;;;;10.73;9.73;;;6.00;99.90;;;;;;4916686;29;20854;-78
2021/05/03 07:50:56;;;;;;;9.97;8.60;;;6.00;99.90;;;;;;4915450;29;20493;-78
2021/05/03 07:53:23;;;;;;;9.33;8.53;;;6.00;99.90;;;;;;4916819;29;20476;-78
2021/05/03 07:55:51;;;;;;;9.73;8.73;;;6.00;99.90;;;;;;4916824;29;20536;-78
2021/05/03 07:58:18;;;;;;;10.53;9.53;;;6.10;99.90;;;;;;4915318;29;20495;-78
2021/05/03 08:00:47;;;;;;;9.40;8.60;;;6.10;99.90;;;;;;4916485;29;21028;-78
2021/05/03 08:03:16;;;;;;;9.50;8.60;;;6.10;99.90;;;;;;4916691;29;20462;-78
2021/05/03 08:05:44;;;;;;;10.70;9.70;;;6.10;99.90;;;;;;4915228;29;20880;-78
2021/05/03 08:08:11;;;;;;;10.47;9.57;;;6.10;99.90;;;;;;4916753;29;20492;-78
2021/05/03 08:10:39;;;;;;;10.13;9.17;;;6.10;99.90;;;;;;4915457;29;20462;-78
2021/05/03 08:13:07;;;;;;;10.40;9.47;;;6.10;99.90;;;;;;4917721;29;20485;-78
2021/05/03 08:15:35;;;;;;;10.10;9.20;;;6.10;99.90;;;;;;4918569;29;20524;-78
2021/05/03 08:18:02;;;;;;;10.60;9.60;;;6.10;99.90;;;;;;4918944;29;20458;-78
2021/05/03 08:20:29;;;;;;;9.70;8.80;;;6.10;99.90;;;;;;4918739;29;20530;-78
2021/05/03 08:22:57;;;;;;;10.13;9.13;;;6.00;99.90;;;;;;4918577;29;20479;-78
2021/05/03 08:25:24;;;;;;;10.50;9.50;;;6.00;99.90;;;;;;4918266;29;20524;-78
2021/05/03 08:27:51;;;;;;;10.57;9.68;;;6.00;99.90;;;;;;4919231;29;20474;-78
2021/05/03 08:30:20;;;;;;;10.03;9.00;;;6.10;99.90;;;;;;4918631;29;20238;-78
2021/05/03 08:32:47;;;;;;;10.43;9.27;;;6.10;99.90;;;;;;4918526;29;20880;-78
2021/05/03 08:35:14;;;;;;;9.70;8.90;;;6.10;99.90;;;;;;4919666;29;20438;-78
2021/05/03 08:37:41;;;;;;;10.80;9.80;;;6.10;99.90;;;;;;4918407;29;20450;-78
2021/05/03 08:40:09;;;;;;;10.60;9.60;;;6.10;99.90;;;;;;4918420;29;20454;-77
2021/05/03 08:42:37;;;;;;;11.23;10.13;;;6.10;99.90;;;;;;4918530;29;20542;-78
2021/05/03 08:45:07;;;;;;;10.20;9.30;;;6.10;99.90;;;;;;4918687;29;20601;-78
2021/05/03 08:47:38;;;;;;;11.73;10.57;;;6.20;99.90;;;;;;4919682;29;20524;-78
2021/05/03 08:50:11;;;;;;;11.23;10.13;;;6.20;99.90;;;;;;4919962;29;20425;-78
2021/05/03 08:52:42;;;;;;;12.90;11.70;;;6.20;99.90;;;;;;4920077;29;20473;-78
2021/05/03 08:55:14;;;;;;;12.73;11.53;;;6.30;99.90;;;;;;4919667;29;20479;-78
2021/05/03 08:57:41;;;;;;;12.83;11.53;;;6.30;99.90;;;;;;4918127;29;20454;-78
2021/05/03 09:00:12;;;;;;;12.50;11.20;;;6.40;99.90;;;;;;4918364;29;20506;-78
2021/05/03 09:02:43;;;;;;;13.37;12.07;;;6.40;99.90;;;;;;4917777;29;20474;-78
2021/05/03 09:05:12;;;;;;;13.03;11.80;;;6.50;99.90;;;;;;4918025;29;20466;-78
2021/05/03 09:07:47;;;;;;;14.13;12.83;;;6.60;99.90;;;;;;4918111;29;20450;-78
2021/05/03 09:10:16;;;;;;;15.20;13.90;;;6.60;99.90;;;;;;4919496;29;20462;-78
2021/05/03 09:12:44;;;;;;;15.30;13.80;;;6.60;99.90;;;;;;4919230;29;20813;-78
2021/05/03 09:15:12;;;;;;;15.87;14.37;;;6.70;99.90;;;;;;4917735;29;20560;-78
2021/05/03 09:17:41;;;;;;;16.33;14.83;;;6.70;99.90;;;;;;4917859;29;20564;-78
2021/05/03 09:20:13;;;;;;;17.40;16.00;;;6.80;99.90;;;;;;4918877;29;20539;-78
2021/05/03 09:22:43;;;;;;;17.17;15.57;;;6.90;99.90;;;;;;4918702;29;20497;-78
2021/05/03 09:25:24;;;;;;;16.20;14.50;;;6.90;99.90;;;;;;4918728;29;20509;-78
2021/05/03 09:28:03;;;;;;;18.30;16.80;;;6.90;99.90;;;;;;4917586;29;20450;-78
2021/05/03 09:30:41;;;;;;;19.20;17.30;;;7.00;99.90;;;;;;4917789;29;20451;-78
2021/05/03 09:33:24;;;;;;;19.20;17.60;;;7.00;99.90;;;;;;4917919;29;20546;-78
2021/05/03 09:35:54;;;;;;;21.73;19.67;;;7.00;99.90;;;;;;4917448;29;20446;-78
2021/05/03 09:38:43;;;;;;;22.47;20.60;;;7.00;99.90;;;;;;4918374;29;20526;-78
2021/05/03 09:41:12;;;;;;;21.80;19.90;;;7.00;99.90;;;;;;4917207;29;20821;-78
2021/05/03 09:43:40;;;;;;;25.40;23.10;;;7.00;99.90;;;;;;4918343;29;20498;-78
2021/05/03 09:46:36;;;;;;;25.47;23.17;;;7.10;99.90;;;;;;4917202;29;20448;-78
2021/05/03 09:49:08;;;;;;;28.60;26.00;;;7.10;99.90;;;;;;4917207;29;20546;-78
2021/05/03 09:51:38;;;;;;;29.13;26.40;;;7.10;99.90;;;;;;4916933;29;20506;-78
2021/05/03 09:54:11;;;;;;;27.97;25.37;;;7.10;99.90;;;;;;4917156;29;20470;-78
2021/05/03 09:56:53;;;;;;;29.60;26.60;;;7.10;99.90;;;;;;4916979;29;20447;-78
2021/05/03 09:59:28;;;;;;;30.17;27.37;;;7.20;99.90;;;;;;4918371;29;20518;-78
2021/05/03 10:02:19;;;;;;;30.33;27.33;;;7.20;99.90;;;;;;4916665;29;20943;-79
2021/05/03 10:04:54;;;;;;;28.47;25.50;;;7.20;99.90;;;;;;4916129;29;20581;-78
2021/05/03 10:07:23;;;;;;;30.90;28.10;;;7.30;99.90;;;;;;4918203;29;20440;-78
2021/05/03 10:09:55;;;;;;;28.07;25.47;;;7.30;99.90;;;;;;4918368;29;20446;-78
2021/05/03 10:12:22;;;;;;;28.33;25.60;;;7.30;99.90;;;;;;4918548;29;20477;-78
2021/05/03 10:14:50;;;;;;;28.97;26.37;;;7.30;99.90;;;;;;4918616;29;20569;-78
2021/05/03 10:17:17;;;;;;;26.97;24.37;;;7.30;99.90;;;;;;4918059;29;20461;-79
2021/05/03 10:19:48;;;;;;;28.50;25.73;;;7.40;99.90;;;;;;4917721;29;20805;-79
2021/05/03 10:22:21;;;;;;;29.25;26.55;;;7.40;99.90;;;;;;4917205;29;20541;-78
2021/05/03 10:24:52;;;;;;;25.97;23.37;;;7.50;99.90;;;;;;4918029;29;20297;-77
2021/05/03 10:27:20;;;;;;;28.17;25.57;;;7.60;99.90;;;;;;4916865;29;20451;-77
2021/05/03 10:29:49;;;;;;;27.47;24.80;;;7.70;99.90;;;;;;4917919;29;20538;-77
2021/05/03 10:32:23;;;;;;;28.03;25.33;;;7.80;99.90;;;;;;4915771;29;20925;-77
2021/05/03 10:34:52;;;;;;;27.87;25.37;;;8.00;99.90;;;;;;4917080;29;20427;-77
2021/05/03 10:37:52;;;;;;;29.43;26.47;;;8.20;99.90;;;;;;4917632;29;20948;-77
2021/05/03 10:40:50;;;;;;;27.60;24.80;;;8.50;99.90;;;;;;4916374;29;20961;-77
2021/05/03 10:43:28;;;;;;;27.17;24.60;;;8.70;99.90;;;;;;4917749;29;20503;-76
2021/05/03 10:46:13;;;;;;;25.30;23.00;;;8.90;99.90;;;;;;4917991;29;20656;-77
2021/05/03 10:48:51;;;;;;;27.97;25.30;;;9.10;99.90;;;;;;4917634;29;20431;-77
2021/05/03 10:51:43;;;;;;;27.10;24.57;;;9.20;99.90;;;;;;4917810;29;20532;-77
2021/05/03 10:54:41;;;;;;;23.40;21.20;;;9.30;99.90;;;;;;4916362;29;20854;-77
2021/05/03 10:57:28;;;;;;;25.83;23.43;;;9.40;99.90;;;;;;4917606;29;20438;-76
2021/05/03 10:59:58;;;;;;;26.67;24.27;;;9.50;99.90;;;;;;4917574;29;20793;-77
2021/05/03 11:02:26;;;;;;;25.93;23.50;;;9.60;99.90;;;;;;4916326;29;20573;-77
2021/05/03 11:05:23;;;;;;;24.10;22.03;;;9.80;99.90;;;;;;4916375;29;20477;-76
2021/05/03 11:08:29;;;;;;;24.27;22.07;;;9.90;99.90;;;;;;4916267;29;20447;-76
2021/05/03 11:11:24;;;;;;;24.97;22.67;;;10.00;99.90;;;;;;4916100;29;20440;-76
2021/05/03 11:14:01;;;;;;;25.53;23.17;;;10.00;99.90;;;;;;4917264;29;20510;-77
2021/05/03 11:16:48;;;;;;;25.40;23.10;;;10.00;99.90;;;;;;4918037;29;20938;-77
2021/05/03 11:19:55;;;;;;;25.20;23.00;;;10.10;99.90;;;;;;4917458;29;20467;-77
2021/05/03 11:22:25;;;;;;;25.50;23.10;;;10.10;99.90;;;;;;4911924;29;20536;-77
2021/05/03 11:24:55;;;;;;;28.50;25.90;;;10.20;99.90;;;;;;4915839;29;20933;-78
2021/05/03 11:27:41;;;;;;;27.10;24.60;;;10.30;99.90;;;;;;4917094;29;20430;-77
2021/05/03 11:30:13;;;;;;;26.27;23.70;;;10.50;99.90;;;;;;4915798;29;20555;-78
2021/05/03 11:32:41;;;;;;;24.30;22.10;;;10.50;99.90;;;;;;4916744;29;20457;-78
2021/05/03 11:35:20;;;;;;;22.13;20.13;;;10.50;99.90;;;;;;4916803;29;20480;-79
2021/05/03 11:37:53;;;;;;;24.07;21.93;;;10.50;99.90;;;;;;4917154;29;20428;-78
2021/05/03 11:40:36;;;;;;;23.80;21.80;;;10.50;99.90;;;;;;4915752;29;20536;-77
2021/05/03 11:45:49;;;;;;;26.17;23.87;;;10.40;99.90;;;;;;4917066;29;20460;-78
2021/05/03 11:48:28;;;;;;;26.80;24.37;;;10.30;99.90;;;;;;4920225;29;20436;-77
2021/05/03 11:51:03;;;;;;;29.03;26.53;;;10.20;99.90;;;;;;4919562;29;20459;-77
2021/05/03 11:53:38;;;;;;;27.40;25.00;;;10.10;99.90;;;;;;4919764;29;20506;-77
2021/05/03 11:56:20;;;;;;;29.70;26.80;;;10.00;99.90;;;;;;4919294;29;20452;-77
2021/05/03 11:58:50;;;;;;;29.93;26.73;;;9.90;99.90;;;;;;4921349;29;20450;-78
2021/05/03 12:01:18;;;;;;;27.87;25.27;;;9.80;99.90;;;;;;4919201;29;20477;-78
2021/05/03 12:03:47;;;;;;;25.77;23.47;;;9.70;99.90;;;;;;4919182;29;20468;-77
2021/05/03 12:06:34;;;;;;;15.50;14.10;;;9.50;99.90;;;;;;4919097;29;20468;-77
2021/05/03 12:09:03;;;;;;;11.40;10.40;;;9.20;99.90;;;;;;4919161;29;20503;-78
2021/05/03 12:11:30;;;;;;;12.40;11.23;;;8.90;99.90;;;;;;4918519;29;20538;-78
2021/05/03 12:13:58;;;;;;;12.10;10.90;;;8.70;99.90;;;;;;4920158;29;20566;-78
2021/05/03 12:16:38;;;;;;;11.93;10.93;;;8.60;99.90;;;;;;4918969;29;20487;-78
2021/05/03 12:19:12;;;;;;;13.70;12.57;;;8.50;99.90;;;;;;4920962;29;20522;-79
2021/05/03 12:21:40;;;;;;;17.15;15.57;;;8.40;99.90;;;;;;4918512;29;20498;-78
2021/05/03 12:24:19;;;;;;;16.70;15.20;;;8.50;99.90;;;;;;4920072;29;20247;-78
2021/05/03 12:26:54;;;;;;;17.33;15.67;;;8.50;99.90;;;;;;4921568;29;20462;-78
2021/05/03 12:29:22;;;;;;;16.13;14.67;;;8.50;99.90;;;;;;4919991;29;20534;-78
2021/05/03 12:31:50;;;;;;;14.93;13.63;;;8.50;99.90;;;;;;4918831;29;20463;-78
2021/05/03 12:34:20;;;;;;;14.70;13.40;;;8.50;99.90;;;;;;4918453;29;20459;-77
2021/05/03 12:37:04;;;;;;;14.27;13.00;;;8.60;99.90;;;;;;4920021;29;20424;-77
2021/05/03 12:39:31;;;;;;;14.80;13.50;;;8.60;99.90;;;;;;4918454;29;20524;-77
2021/05/03 12:42:12;;;;;;;14.70;13.40;;;8.50;99.90;;;;;;4919897;29;20425;-77
2021/05/03 12:44:49;;;;;;;14.43;13.13;;;8.50;99.90;;;;;;4919990;29;20963;-77
2021/05/03 12:47:28;;;;;;;18.67;17.00;;;8.50;99.90;;;;;;4918371;29;20456;-77
2021/05/03 12:50:01;;;;;;;16.80;15.40;;;8.40;99.90;;;;;;4918992;29;20444;-77
2021/05/03 12:52:34;;;;;;;16.27;14.77;;;8.40;99.90;;;;;;4919450;29;21003;-78
2021/05/03 12:55:07;;;;;;;12.03;10.97;;;8.40;99.90;;;;;;4918583;29;20443;-78
2021/05/03 12:58:04;;;;;;;10.03;9.20;;;8.40;99.90;;;;;;4918307;29;20452;-78
2021/05/03 13:00:50;;;;;;;7.97;7.27;;;8.40;99.90;;;;;;4919299;29;20564;-78
2021/05/03 13:03:30;;;;;;;7.10;6.60;;;8.40;99.90;;;;;;4918092;29;21028;-78
2021/05/03 13:06:21;;;;;;;4.17;3.87;;;8.30;99.90;;;;;;4919340;29;20564;-78
2021/05/03 13:12:13;;;;;;;6.57;5.97;;;8.30;99.90;;;;;;4894215;29;20459;-79
2021/05/03 13:29:09;;;;;;;8.77;8.07;;;8.90;99.90;;;;;;4920946;29;20524;-79
2021/05/03 13:31:39;;;;;;;8.33;7.73;;;9.00;99.90;;;;;;4920477;29;20503;-80
2021/05/03 13:34:09;;;;;;;8.87;8.17;;;9.10;99.90;;;;;;4919106;29;20958;-79
2021/05/03 13:36:43;;;;;;;11.10;10.10;;;9.10;99.90;;;;;;4918142;29;20461;-79
2021/05/03 13:39:11;;;;;;;12.07;11.07;;;9.20;99.90;;;;;;4921230;29;20445;-79
2021/05/03 13:41:40;;;;;;;13.43;12.33;;;9.30;99.90;;;;;;4921068;29;20514;-79